ENSD/SDN METAR and TAF weather

Enter ICAO airport designator
Station Type Date Time Source
ENSD METAR 2020/04/06 08:50 UTC NOAA

ENSD 060850Z VRB03KT CAVOK 15/M03 Q1010 RMK WIND 1138FT VRB06KT


Station Type Date Time Source
ENSD Decoded METAR 2020/04/06 08:50 UTC NOAA

Sandane / Anda, Norway (ENSD) 61-50N 006-07E 60M
Apr 06, 2020 - 04:50 AM EDT / 2020.04.06 0850 UTC
Wind: Variable at 3 MPH (3 KT):0
Visibility: greater than 7 mile(s):0
Temperature: 59 F (15 C)
Dew Point: 26 F (-3 C)
Relative Humidity: 28%
Pressure (altimeter): 29.83 in. Hg (1010 hPa)
ob: ENSD 060850Z VRB03KT CAVOK 15/M03 Q1010 RMK WIND 1138FT VRB06KT
cycle: 9

Station Type Date Time Source
ENSD TAF UTC NOAA

Error!

Example: see airport list